Terminal Aerodrome Forecast
Issued by NWS Sioux Falls, SD

Home | Current Version | Previous Version | Graphics & Text | Print | Product List | Glossary On
Versions: 1 2 3 4 5 6 7 8 9 10 11 12 13 14 15 16 17 18 19 20 21 22 23 24 25 26 27 28 29 30 31 32 33 34 35 36 37
000
FTUS43 KFSD 301729
TAFSUX
TAF
KSUX 301729Z 3018/0118 14013KT P6SM -SHRA SCT025 OVC060
     FM302000 15014G22KT P6SM BKN025 OVC100
     FM010200 15008KT P6SM BKN015 BKN080
     FM011600 17007KT P6SM SCT012 OVC090=

USA.gov is the U.S. government's official web portal to all federal, state and local government web resources and services.